createdAt,value
2019-02-12T00:00:26.962Z,99.99
2019-02-12T00:01:26.876Z,99.99
2019-02-12T00:02:26.787Z,99.99
2019-02-12T00:03:26.697Z,99.99
2019-02-12T00:04:26.612Z,99.99
2019-02-12T00:05:26.524Z,99.99
2019-02-12T00:06:26.436Z,99.99
2019-02-12T00:07:26.351Z,99.99
2019-02-12T00:08:26.261Z,99.99
2019-02-12T00:09:26.173Z,99.99
2019-02-12T00:10:26.086Z,99.99
2019-02-12T00:11:25.994Z,99.99
2019-02-12T00:12:25.908Z,99.99
2019-02-12T00:13:25.820Z,99.99
2019-02-12T00:14:25.729Z,99.99
2019-02-12T00:15:25.644Z,99.99
2019-02-12T00:16:25.555Z,99.99
2019-02-12T00:17:25.471Z,99.99
2019-02-12T00:18:25.387Z,99.99
2019-02-12T00:19:25.297Z,99.99
2019-02-12T00:20:25.205Z,99.99
2019-02-12T00:21:25.126Z,99.99
2019-02-12T00:22:25.030Z,99.99
2019-02-12T00:23:24.941Z,99.99
2019-02-12T00:24:24.850Z,99.99
2019-02-12T00:25:24.767Z,99.99
2019-02-12T00:26:24.679Z,99.99
2019-02-12T00:27:24.589Z,99.99
2019-02-12T00:28:24.510Z,99.99
2019-02-12T00:29:24.416Z,99.99
2019-02-12T00:30:24.323Z,99.99
2019-02-12T00:31:24.242Z,99.99
2019-02-12T00:32:24.147Z,99.99
2019-02-12T00:33:24.061Z,99.99
2019-02-12T00:34:23.973Z,99.99
2019-02-12T00:35:23.886Z,99.99
2019-02-12T00:36:23.794Z,99.99
2019-02-12T00:37:23.710Z,99.99
2019-02-12T00:38:23.622Z,99.99
2019-02-12T00:39:23.537Z,99.99
2019-02-12T00:40:23.448Z,99.99
2019-02-12T00:41:23.359Z,99.99
2019-02-12T00:42:23.267Z,99.99
2019-02-12T00:43:23.179Z,99.99
2019-02-12T00:44:23.090Z,99.99
2019-02-12T00:45:23.004Z,99.99
2019-02-12T00:46:22.917Z,99.99
2019-02-12T00:47:22.832Z,99.99
2019-02-12T00:48:22.748Z,99.99
2019-02-12T00:49:22.652Z,99.99
2019-02-12T00:50:22.566Z,99.99
2019-02-12T00:51:22.469Z,99.99
2019-02-12T00:52:22.390Z,99.99
2019-02-12T00:53:22.361Z,99.99
2019-02-12T00:54:24.126Z,99.99
2019-02-12T00:55:22.123Z,99.99
2019-02-12T00:56:22.035Z,99.99
2019-02-12T00:57:21.948Z,99.99
2019-02-12T00:58:21.858Z,99.99
2019-02-12T00:59:21.772Z,99.99
2019-02-12T01:00:21.684Z,99.99
2019-02-12T01:01:21.597Z,99.99
2019-02-12T01:02:21.507Z,99.99
2019-02-12T01:03:21.421Z,99.99
2019-02-12T01:04:21.331Z,99.99
2019-02-12T01:05:21.247Z,99.99
2019-02-12T01:06:21.153Z,99.99
2019-02-12T01:07:21.069Z,99.99
2019-02-12T01:08:20.978Z,99.99
2019-02-12T01:09:20.890Z,99.99
2019-02-12T01:10:20.805Z,99.99
2019-02-12T01:11:20.717Z,99.99
2019-02-12T01:12:20.630Z,99.99
2019-02-12T01:13:20.538Z,99.99
2019-02-12T01:14:20.451Z,99.99
2019-02-12T01:15:20.365Z,99.99
2019-02-12T01:16:20.276Z,99.99
2019-02-12T01:17:20.192Z,99.99
2019-02-12T01:18:20.104Z,99.99
2019-02-12T01:19:20.010Z,99.99
2019-02-12T01:20:19.925Z,99.99
2019-02-12T01:21:25.988Z,99.99
2019-02-12T01:22:19.747Z,99.99
2019-02-12T01:23:19.653Z,99.99
2019-02-12T01:24:19.571Z,99.99
2019-02-12T01:25:19.482Z,99.99
2019-02-12T01:26:19.397Z,99.99
2019-02-12T01:27:19.306Z,99.99
2019-02-12T01:28:19.220Z,99.99
2019-02-12T01:29:19.130Z,99.99
2019-02-12T01:30:19.046Z,99.99
2019-02-12T01:31:18.956Z,99.99
2019-02-12T01:32:18.870Z,99.99
2019-02-12T01:33:18.778Z,99.99
2019-02-12T01:34:18.694Z,99.99
2019-02-12T01:35:18.604Z,99.99
2019-02-12T01:36:18.515Z,99.99
2019-02-12T01:37:18.429Z,99.99
2019-02-12T01:38:18.341Z,99.99
2019-02-12T01:39:18.252Z,99.99
2019-02-12T01:40:18.164Z,99.99
2019-02-12T01:41:18.076Z,99.99
2019-02-12T01:42:17.991Z,99.99
2019-02-12T01:43:17.903Z,99.99
2019-02-12T01:44:17.812Z,99.99
2019-02-12T01:45:17.733Z,99.99
2019-02-12T01:46:17.637Z,99.99
2019-02-12T01:47:17.551Z,99.99
2019-02-12T01:48:17.467Z,99.99
2019-02-12T01:49:17.376Z,99.99
2019-02-12T01:50:17.288Z,99.99
2019-02-12T01:51:17.199Z,99.99
2019-02-12T01:52:17.113Z,99.99
2019-02-12T01:53:17.024Z,99.99
2019-02-12T01:54:16.934Z,99.99
2019-02-12T01:55:16.849Z,99.99
2019-02-12T01:56:16.761Z,99.99
2019-02-12T01:57:16.671Z,99.99
2019-02-12T01:58:16.584Z,99.99
2019-02-12T01:59:16.501Z,99.99
2019-02-12T02:00:16.408Z,99.99
2019-02-12T02:01:16.328Z,99.99
2019-02-12T02:02:16.276Z,99.99
2019-02-12T02:03:16.147Z,99.99
2019-02-12T02:04:16.060Z,99.99
2019-02-12T02:05:15.971Z,99.67
2019-02-12T02:06:15.878Z,98.44
2019-02-12T02:07:15.795Z,99.20
2019-02-12T02:08:15.709Z,99.01
2019-02-12T02:09:15.622Z,99.48
2019-02-12T02:10:15.537Z,99.96
2019-02-12T02:11:15.445Z,99.99
2019-02-12T02:12:15.352Z,99.99
2019-02-12T02:13:15.279Z,99.99
2019-02-12T02:14:15.183Z,99.99
2019-02-12T02:15:15.094Z,99.96
2019-02-12T02:16:15.005Z,99.86
2019-02-12T02:17:14.919Z,99.99
2019-02-12T02:18:14.835Z,99.99
2019-02-12T02:19:14.743Z,99.99
2019-02-12T02:20:14.657Z,99.99
2019-02-12T02:21:14.566Z,96.36
2019-02-12T02:22:14.478Z,97.02
2019-02-12T02:23:14.392Z,98.72
2019-02-12T02:24:14.305Z,99.01
2019-02-12T02:25:14.215Z,99.99
2019-02-12T02:26:14.130Z,99.99
2019-02-12T02:27:14.041Z,99.99
2019-02-12T02:28:13.953Z,99.99
2019-02-12T02:29:13.866Z,99.99
2019-02-12T02:30:13.803Z,99.99
2019-02-12T02:31:13.714Z,99.99
2019-02-12T02:32:13.604Z,99.99
2019-02-12T02:33:13.512Z,99.99
2019-02-12T02:34:13.428Z,99.99
2019-02-12T02:35:13.369Z,99.99
2019-02-12T02:36:13.252Z,99.99
2019-02-12T02:37:13.170Z,99.99
2019-02-12T02:38:13.077Z,99.99
2019-02-12T02:39:12.989Z,99.99
2019-02-12T02:40:12.901Z,99.99
2019-02-12T02:41:12.817Z,99.99
2019-02-12T02:42:12.725Z,99.99
2019-02-12T02:43:12.639Z,99.99
2019-02-12T02:44:12.551Z,99.99
2019-02-12T02:45:12.464Z,99.99
2019-02-12T02:46:12.377Z,99.99
2019-02-12T02:47:12.286Z,99.99
2019-02-12T02:48:12.197Z,99.99
2019-02-12T02:49:12.117Z,99.99
2019-02-12T02:50:12.038Z,99.99
2019-02-12T02:51:11.936Z,99.99
2019-02-12T02:52:11.847Z,99.99
2019-02-12T02:53:11.763Z,99.99
2019-02-12T02:54:11.675Z,99.99
2019-02-12T02:55:11.590Z,99.99
2019-02-12T02:56:11.499Z,99.99
2019-02-12T02:57:11.410Z,99.99
2019-02-12T02:58:11.325Z,99.99
2019-02-12T02:59:11.245Z,99.99
2019-02-12T03:00:11.158Z,99.99
2019-02-12T03:01:11.062Z,99.99
2019-02-12T03:02:10.974Z,99.99
2019-02-12T03:03:10.885Z,99.99
2019-02-12T03:04:10.798Z,99.99
2019-02-12T03:05:10.712Z,99.99
2019-02-12T03:06:10.623Z,99.99
2019-02-12T03:07:10.534Z,99.99
2019-02-12T03:08:10.451Z,99.99
2019-02-12T03:09:10.360Z,99.99
2019-02-12T03:10:10.292Z,99.99
2019-02-12T03:11:10.189Z,99.99
2019-02-12T03:12:10.101Z,99.99
2019-02-12T03:13:10.007Z,99.99
2019-02-12T03:14:09.922Z,99.99
2019-02-12T03:15:09.834Z,99.99
2019-02-12T03:16:09.749Z,99.99
2019-02-12T03:17:09.667Z,99.99
2019-02-12T03:18:09.574Z,99.99
2019-02-12T03:19:09.482Z,99.99
2019-02-12T03:20:09.395Z,99.99
2019-02-12T03:21:09.314Z,99.99
2019-02-12T03:22:09.226Z,99.99
2019-02-12T03:23:09.136Z,99.99
2019-02-12T03:24:09.052Z,99.99
2019-02-12T03:25:08.959Z,99.99
2019-02-12T03:26:08.873Z,99.99
2019-02-12T03:27:08.784Z,99.99
2019-02-12T03:28:08.697Z,99.99
2019-02-12T03:29:08.609Z,99.99
2019-02-12T03:30:08.523Z,99.99
2019-02-12T03:31:08.436Z,99.99
2019-02-12T03:32:08.350Z,99.99
2019-02-12T03:33:08.262Z,99.99
2019-02-12T03:34:08.180Z,99.99
2019-02-12T03:35:08.090Z,99.99
2019-02-12T03:36:07.999Z,99.99
2019-02-12T03:37:07.911Z,99.99
2019-02-12T03:38:07.824Z,99.99
2019-02-12T03:39:07.741Z,99.99
2019-02-12T03:40:16.178Z,99.99
2019-02-12T03:41:07.559Z,99.99
2019-02-12T03:42:07.478Z,99.99
2019-02-12T03:43:07.384Z,99.99
2019-02-12T03:44:07.299Z,99.99
2019-02-12T03:45:07.218Z,99.99
2019-02-12T03:46:07.123Z,99.99
2019-02-12T03:47:07.032Z,99.99
2019-02-12T03:48:06.950Z,99.99
2019-02-12T03:49:06.860Z,99.99
2019-02-12T03:50:06.771Z,99.99
2019-02-12T03:51:06.678Z,99.99
2019-02-12T03:52:12.683Z,99.99
2019-02-12T03:53:06.507Z,99.99
2019-02-12T03:54:06.418Z,99.99
2019-02-12T03:55:06.335Z,99.99
2019-02-12T03:56:06.247Z,99.99
2019-02-12T03:57:06.160Z,99.99
2019-02-12T03:58:06.071Z,99.99
2019-02-12T03:59:05.987Z,99.99
2019-02-12T04:00:05.895Z,99.99
2019-02-12T04:01:05.809Z,99.99
2019-02-12T04:02:05.724Z,99.99
2019-02-12T04:03:05.638Z,99.99
2019-02-12T04:04:05.543Z,99.99
2019-02-12T04:05:05.462Z,99.99
2019-02-12T04:06:05.368Z,99.99
2019-02-12T04:07:05.286Z,99.99
2019-02-12T04:08:05.192Z,99.99
2019-02-12T04:09:05.109Z,99.99
2019-02-12T04:10:05.019Z,99.99
2019-02-12T04:11:04.933Z,99.99
2019-02-12T04:12:04.842Z,99.05
2019-02-12T04:13:04.756Z,99.10
2019-02-12T04:14:04.666Z,98.86
2019-02-12T04:15:04.583Z,99.05
2019-02-12T04:16:04.495Z,99.62
2019-02-12T04:17:04.403Z,98.86
2019-02-12T04:18:04.321Z,99.48
2019-02-12T04:19:04.231Z,99.52
2019-02-12T04:20:04.144Z,99.99
2019-02-12T04:21:04.056Z,99.99
2019-02-12T04:22:03.970Z,99.99
2019-02-12T04:23:03.885Z,99.99
2019-02-12T04:24:03.796Z,99.99
2019-02-12T04:25:03.709Z,99.77
2019-02-12T04:26:03.620Z,99.99
2019-02-12T04:27:03.530Z,99.99
2019-02-12T04:28:03.441Z,99.99
2019-02-12T04:29:03.434Z,99.99
2019-02-12T04:30:03.270Z,99.99
2019-02-12T04:31:03.179Z,99.99
2019-02-12T04:32:03.096Z,99.99
2019-02-12T04:33:03.007Z,99.99
2019-02-12T04:34:02.918Z,99.99
2019-02-12T04:35:02.830Z,99.71
2019-02-12T04:36:02.742Z,97.63
2019-02-12T04:37:02.657Z,96.21
2019-02-12T04:38:02.567Z,96.45
2019-02-12T04:39:02.480Z,96.73
2019-02-12T04:40:02.388Z,95.07
2019-02-12T04:41:02.301Z,95.64
2019-02-12T04:42:02.218Z,94.60
2019-02-12T04:43:02.125Z,94.18
2019-02-12T04:44:02.046Z,93.80
2019-02-12T04:45:01.952Z,94.74
2019-02-12T04:46:01.864Z,94.46
2019-02-12T04:47:01.778Z,94.74
2019-02-12T04:48:01.689Z,95.03
2019-02-12T04:49:01.601Z,95.60
2019-02-12T04:50:01.526Z,96.45
2019-02-12T04:51:01.427Z,96.64
2019-02-12T04:52:01.345Z,96.55
2019-02-12T04:53:01.252Z,97.11
2019-02-12T04:54:01.155Z,97.21
2019-02-12T04:55:01.076Z,97.30
2019-02-12T04:56:00.985Z,97.59
2019-02-12T04:57:00.904Z,97.40
2019-02-12T04:58:00.813Z,98.11
2019-02-12T04:59:00.721Z,98.58
2019-02-12T05:00:00.635Z,98.58
2019-02-12T05:01:00.551Z,99.24
2019-02-12T05:02:00.461Z,99.99
2019-02-12T05:03:00.384Z,99.99
2019-02-12T05:04:00.284Z,99.99
2019-02-12T05:05:00.353Z,99.99
2019-02-12T05:06:00.111Z,99.99
2019-02-12T05:07:00.021Z,99.99
2019-02-12T05:07:59.930Z,99.99
2019-02-12T05:08:59.847Z,99.99
2019-02-12T05:09:59.770Z,99.99
2019-02-12T05:10:59.669Z,99.99
2019-02-12T05:11:59.586Z,99.99
2019-02-12T05:12:59.498Z,99.99
2019-02-12T05:13:59.408Z,99.99
2019-02-12T05:14:59.319Z,99.99
2019-02-12T05:15:59.234Z,99.99
2019-02-12T05:16:59.147Z,99.99
2019-02-12T05:17:59.059Z,99.99
2019-02-12T05:18:58.969Z,99.99
2019-02-12T05:19:58.877Z,99.99
2019-02-12T05:20:58.796Z,99.99
2019-02-12T05:21:58.709Z,99.99
2019-02-12T05:22:58.619Z,99.99
2019-02-12T05:23:59.138Z,99.99
2019-02-12T05:24:58.449Z,99.99
2019-02-12T05:25:58.359Z,99.99
2019-02-12T05:26:58.266Z,99.99
2019-02-12T05:27:58.175Z,99.99
2019-02-12T05:28:58.090Z,99.99
2019-02-12T05:29:58.004Z,99.99
2019-02-12T05:30:57.917Z,99.99
2019-02-12T05:31:57.833Z,99.99
2019-02-12T05:32:57.750Z,99.99
2019-02-12T05:33:57.649Z,99.99
2019-02-12T05:34:57.563Z,99.99
2019-02-12T05:35:57.478Z,99.99
2019-02-12T05:36:57.392Z,99.99
2019-02-12T05:37:57.304Z,99.99
2019-02-12T05:38:57.222Z,99.99
2019-02-12T05:39:57.131Z,99.99
2019-02-12T05:40:57.038Z,99.99
2019-02-12T05:41:56.948Z,99.99
2019-02-12T05:42:56.864Z,99.99
2019-02-12T05:43:56.773Z,99.99
2019-02-12T05:44:56.689Z,99.99
2019-02-12T05:45:56.610Z,99.99
2019-02-12T05:46:56.510Z,99.99
2019-02-12T05:47:56.424Z,99.99
2019-02-12T05:48:56.336Z,99.99
2019-02-12T05:49:56.249Z,99.99
2019-02-12T05:50:56.206Z,99.99
2019-02-12T05:51:56.071Z,99.99
2019-02-12T05:52:55.985Z,99.99
2019-02-12T05:53:55.899Z,99.99
2019-02-12T05:54:55.809Z,99.99
2019-02-12T05:55:55.717Z,99.99
2019-02-12T05:56:55.632Z,99.99
2019-02-12T05:57:55.551Z,99.99
2019-02-12T05:58:55.462Z,99.99
2019-02-12T05:59:55.367Z,99.99
2019-02-12T06:00:55.281Z,99.99
2019-02-12T06:01:55.197Z,99.99
2019-02-12T06:02:55.102Z,99.99
2019-02-12T06:03:55.017Z,99.99
2019-02-12T06:04:54.932Z,99.99
2019-02-12T06:05:54.840Z,99.99
2019-02-12T06:06:54.753Z,99.99
2019-02-12T06:07:54.664Z,99.99
2019-02-12T06:08:54.575Z,99.99
2019-02-12T06:09:54.481Z,99.99
2019-02-12T06:10:54.401Z,99.99
2019-02-12T06:11:54.309Z,99.99
2019-02-12T06:12:54.233Z,99.99
2019-02-12T06:13:54.138Z,99.99
2019-02-12T06:14:54.046Z,99.99
2019-02-12T06:15:53.957Z,99.99
2019-02-12T06:16:53.871Z,99.99
2019-02-12T06:17:53.783Z,99.99
2019-02-12T06:18:53.709Z,99.99
2019-02-12T06:19:53.605Z,99.99
2019-02-12T06:20:53.516Z,99.99
2019-02-12T06:21:53.427Z,99.99
2019-02-12T06:23:03.034Z,99.99
2019-02-12T06:23:53.254Z,99.99
2019-02-12T06:24:53.177Z,99.99
2019-02-12T06:25:53.078Z,99.99
2019-02-12T06:26:52.990Z,99.99
2019-02-12T06:27:52.898Z,99.99
2019-02-12T06:28:52.814Z,99.99
2019-02-12T06:29:52.727Z,99.99
2019-02-12T06:30:52.636Z,99.99
2019-02-12T06:31:52.549Z,99.99
2019-02-12T06:32:52.465Z,99.99
2019-02-12T06:33:52.374Z,99.99
2019-02-12T06:34:52.287Z,99.99
2019-02-12T06:35:52.198Z,99.99
2019-02-12T06:36:52.110Z,99.99
2019-02-12T06:37:52.027Z,99.99
2019-02-12T06:38:51.934Z,99.99
2019-02-12T06:39:51.847Z,99.99
2019-02-12T06:40:51.759Z,99.99
2019-02-12T06:41:51.676Z,99.99
2019-02-12T06:42:51.585Z,99.99
2019-02-12T06:43:51.496Z,99.99
2019-02-12T06:44:51.407Z,99.99
2019-02-12T06:45:51.322Z,99.99
2019-02-12T06:46:51.242Z,99.99
2019-02-12T06:47:51.143Z,99.99
2019-02-12T06:48:51.056Z,99.99
2019-02-12T06:49:50.968Z,99.99
2019-02-12T06:50:50.881Z,99.99
2019-02-12T06:51:50.794Z,99.99
2019-02-12T06:52:50.703Z,99.99
2019-02-12T06:53:50.615Z,99.99
2019-02-12T06:54:50.528Z,99.99
2019-02-12T06:55:50.438Z,99.99
2019-02-12T06:56:50.351Z,99.99
2019-02-12T06:57:50.264Z,99.99
2019-02-12T06:58:50.175Z,99.99
2019-02-12T06:59:50.088Z,99.99
2019-02-12T07:00:49.998Z,99.99
2019-02-12T07:01:49.912Z,99.99
2019-02-12T07:02:49.820Z,99.99
2019-02-12T07:03:49.735Z,99.99
2019-02-12T07:04:49.648Z,99.99
2019-02-12T07:05:49.567Z,99.99
2019-02-12T07:06:49.470Z,99.99
2019-02-12T07:07:49.387Z,99.99
2019-02-12T07:08:49.296Z,99.99
2019-02-12T07:09:49.209Z,99.99
2019-02-12T07:10:49.120Z,99.99
2019-02-12T07:11:49.034Z,99.99
2019-02-12T07:12:48.945Z,99.99
2019-02-12T07:13:48.859Z,99.99
2019-02-12T07:14:48.767Z,99.99
2019-02-12T07:15:48.682Z,99.99
2019-02-12T07:16:48.594Z,99.99
2019-02-12T07:17:48.504Z,99.99
2019-02-12T07:18:48.433Z,99.99
2019-02-12T07:19:48.332Z,99.99
2019-02-12T07:20:48.242Z,99.99
2019-02-12T07:21:48.153Z,99.99
2019-02-12T07:22:48.066Z,99.99
2019-02-12T07:23:47.984Z,99.99
2019-02-12T07:24:47.889Z,99.99
2019-02-12T07:25:47.801Z,99.99
2019-02-12T07:26:47.714Z,99.99
2019-02-12T07:27:47.627Z,99.99
2019-02-12T07:28:47.537Z,99.99
2019-02-12T07:29:47.451Z,99.99
2019-02-12T07:30:47.360Z,99.99
2019-02-12T07:31:47.274Z,99.99
2019-02-12T07:32:47.186Z,99.99
2019-02-12T07:33:47.097Z,99.99
2019-02-12T07:34:47.010Z,99.99
2019-02-12T07:35:46.922Z,99.99
2019-02-12T07:36:46.840Z,99.99
2019-02-12T07:37:46.750Z,99.99
2019-02-12T07:38:46.659Z,99.99
2019-02-12T07:39:46.573Z,99.99
2019-02-12T07:40:46.483Z,99.99
2019-02-12T07:41:46.467Z,99.99
2019-02-12T07:42:46.315Z,99.99
2019-02-12T07:43:46.220Z,99.99
2019-02-12T07:44:46.131Z,99.99
2019-02-12T07:45:46.045Z,99.99
2019-02-12T07:46:45.955Z,99.99
2019-02-12T07:47:45.872Z,99.99
2019-02-12T07:48:45.779Z,99.99
2019-02-12T07:49:45.693Z,99.99
2019-02-12T07:50:45.598Z,99.99
2019-02-12T07:51:45.522Z,99.99
2019-02-12T07:52:45.431Z,99.99
2019-02-12T07:53:45.345Z,99.99
2019-02-12T07:54:45.255Z,99.99
2019-02-12T07:55:45.169Z,99.99
2019-02-12T07:56:45.078Z,99.99
2019-02-12T07:57:44.990Z,99.99
2019-02-12T07:58:44.905Z,99.99
2019-02-12T07:59:44.836Z,99.99
2019-02-12T08:00:44.729Z,99.99
2019-02-12T08:01:44.638Z,99.99
2019-02-12T08:02:44.549Z,99.99
2019-02-12T08:03:44.464Z,99.99
2019-02-12T08:04:44.379Z,99.99
2019-02-12T08:05:44.287Z,99.99
2019-02-12T08:06:44.198Z,99.99
2019-02-12T08:07:44.111Z,99.99
2019-02-12T08:08:44.025Z,99.99
2019-02-12T08:09:43.939Z,99.99
2019-02-12T08:10:43.847Z,99.99
2019-02-12T08:11:43.861Z,99.99
2019-02-12T08:12:43.674Z,99.99
2019-02-12T08:13:43.587Z,99.99
2019-02-12T08:14:43.501Z,99.99
2019-02-12T08:15:43.406Z,99.99
2019-02-12T08:16:43.320Z,99.99
2019-02-12T08:17:43.235Z,99.99
2019-02-12T08:18:43.162Z,99.99
2019-02-12T08:19:43.058Z,99.99
2019-02-12T08:20:42.969Z,99.99
2019-02-12T08:21:42.881Z,99.99
2019-02-12T08:22:42.791Z,99.99
2019-02-12T08:23:42.704Z,99.99
2019-02-12T08:24:42.615Z,99.99
2019-02-12T08:25:42.532Z,99.99
2019-02-12T08:26:42.440Z,99.99
2019-02-12T08:27:42.350Z,99.99
2019-02-12T08:28:42.275Z,99.99
2019-02-12T08:29:42.173Z,99.99
2019-02-12T08:30:42.103Z,99.99
2019-02-12T08:31:41.998Z,99.99
2019-02-12T08:32:41.909Z,99.99
2019-02-12T08:33:41.826Z,99.99
2019-02-12T08:34:41.736Z,99.99
2019-02-12T08:35:41.650Z,99.99
2019-02-12T08:36:41.616Z,99.99
2019-02-12T08:37:41.469Z,99.99
2019-02-12T08:38:41.388Z,99.99
2019-02-12T08:39:41.304Z,99.99
2019-02-12T08:40:41.207Z,99.99
2019-02-12T08:41:41.118Z,99.99
2019-02-12T08:42:41.029Z,99.99
2019-02-12T08:43:42.575Z,99.99
2019-02-12T08:44:40.851Z,99.99
2019-02-12T08:45:40.763Z,99.99
2019-02-12T08:46:40.678Z,99.99
2019-02-12T08:47:40.608Z,99.99
2019-02-12T08:48:40.496Z,99.99
2019-02-12T08:49:40.417Z,99.99
2019-02-12T08:50:40.352Z,99.99
2019-02-12T08:51:40.238Z,99.99
2019-02-12T08:52:40.160Z,99.99
2019-02-12T08:53:40.063Z,99.99
2019-02-12T08:54:39.975Z,99.99
2019-02-12T08:55:39.888Z,99.99
2019-02-12T08:56:39.798Z,99.99
2019-02-12T08:57:39.713Z,99.99
2019-02-12T08:58:39.621Z,99.99
2019-02-12T08:59:39.538Z,99.99
2019-02-12T09:00:39.451Z,99.99
2019-02-12T09:01:39.363Z,99.99
2019-02-12T09:02:39.271Z,99.99
2019-02-12T09:03:39.187Z,99.99
2019-02-12T09:04:39.098Z,99.99
2019-02-12T09:05:39.012Z,99.99
2019-02-12T09:06:38.927Z,99.99
2019-02-12T09:07:38.835Z,99.99
2019-02-12T09:08:38.747Z,99.99
2019-02-12T09:09:38.665Z,99.99
2019-02-12T09:10:38.594Z,99.99
2019-02-12T09:11:38.485Z,99.99
2019-02-12T09:12:38.399Z,99.99
2019-02-12T09:13:38.311Z,99.99
2019-02-12T09:14:38.226Z,99.99
2019-02-12T09:15:38.143Z,99.99
2019-02-12T09:16:38.051Z,99.99
2019-02-12T09:17:37.963Z,99.99
2019-02-12T09:18:37.874Z,99.99
2019-02-12T09:19:37.788Z,99.99
2019-02-12T09:20:37.719Z,99.99
2019-02-12T09:21:37.613Z,99.99
2019-02-12T09:22:37.526Z,99.99
2019-02-12T09:23:37.438Z,99.99
2019-02-12T09:24:37.351Z,99.99
2019-02-12T09:25:37.265Z,99.99
2019-02-12T09:26:37.178Z,99.99
2019-02-12T09:27:37.092Z,99.99
2019-02-12T09:28:37.001Z,99.99
2019-02-12T09:29:36.918Z,99.99
2019-02-12T09:30:36.826Z,99.99
2019-02-12T09:31:36.739Z,99.99
2019-02-12T09:32:36.655Z,99.99
2019-02-12T09:33:36.565Z,99.99
2019-02-12T09:34:36.479Z,99.99
2019-02-12T09:35:36.391Z,99.99
2019-02-12T09:36:36.306Z,99.99
2019-02-12T09:37:36.219Z,99.99
2019-02-12T09:38:36.129Z,99.99
2019-02-12T09:39:36.048Z,99.99
2019-02-12T09:40:35.962Z,99.99
2019-02-12T09:41:35.870Z,99.99
2019-02-12T09:42:35.783Z,99.99
2019-02-12T09:43:35.695Z,99.99
2019-02-12T09:44:35.612Z,99.99
2019-02-12T09:45:35.530Z,99.99
2019-02-12T09:46:35.441Z,99.99
2019-02-12T09:47:35.350Z,99.99
2019-02-12T09:48:35.266Z,99.99
2019-02-12T09:49:35.185Z,99.99
2019-02-12T09:50:35.087Z,99.99
2019-02-12T09:51:35.000Z,99.99
2019-02-12T09:52:34.918Z,99.99
2019-02-12T09:53:34.826Z,99.99
2019-02-12T09:54:34.734Z,99.99
2019-02-12T09:55:34.659Z,99.99
2019-02-12T09:56:34.567Z,99.99
2019-02-12T09:57:34.481Z,99.99
2019-02-12T09:58:34.394Z,99.99
2019-02-12T09:59:34.312Z,99.99
2019-02-12T10:00:34.225Z,99.99
2019-02-12T10:01:34.136Z,99.99
2019-02-12T10:02:34.047Z,99.99
2019-02-12T10:03:33.959Z,99.99
2019-02-12T10:04:33.871Z,99.99
2019-02-12T10:05:33.788Z,99.99
2019-02-12T10:06:33.701Z,99.99
2019-02-12T10:07:33.640Z,99.99
2019-02-12T10:08:33.526Z,99.99
2019-02-12T10:09:33.443Z,99.99
2019-02-12T10:10:33.353Z,99.99
2019-02-12T10:11:33.262Z,99.99
2019-02-12T10:12:33.188Z,99.99
2019-02-12T10:13:33.093Z,99.99
2019-02-12T10:14:33.005Z,99.99
2019-02-12T10:15:32.924Z,99.99
2019-02-12T10:16:32.834Z,99.99
2019-02-12T10:17:32.759Z,99.99
2019-02-12T10:18:32.659Z,99.99
2019-02-12T10:19:32.573Z,99.99
2019-02-12T10:20:32.487Z,99.99
2019-02-12T10:21:32.401Z,99.99
2019-02-12T10:22:32.313Z,99.99
2019-02-12T10:23:32.227Z,99.99
2019-02-12T10:24:32.141Z,99.99
2019-02-12T10:25:32.053Z,99.99
2019-02-12T10:26:31.966Z,99.99
2019-02-12T10:27:31.881Z,99.99
2019-02-12T10:28:31.795Z,99.99
2019-02-12T10:29:31.710Z,99.99
2019-02-12T10:30:31.630Z,99.99
2019-02-12T10:31:31.535Z,99.99
2019-02-12T10:32:31.450Z,99.99
2019-02-12T10:33:31.363Z,99.99
2019-02-12T10:34:31.280Z,99.99
2019-02-12T10:35:31.193Z,99.99
2019-02-12T10:36:31.104Z,99.99
2019-02-12T10:37:31.018Z,99.99
2019-02-12T10:38:30.937Z,99.99
2019-02-12T10:39:30.847Z,99.99
2019-02-12T10:40:30.765Z,99.99
2019-02-12T10:41:30.674Z,99.99
2019-02-12T10:42:30.583Z,99.99
2019-02-12T10:43:30.502Z,99.99
2019-02-12T10:44:30.413Z,99.99
2019-02-12T10:45:30.326Z,99.99
2019-02-12T10:46:30.242Z,99.99
2019-02-12T10:47:30.150Z,99.99
2019-02-12T10:48:30.082Z,99.99
2019-02-12T10:49:29.986Z,99.99
2019-02-12T10:50:29.901Z,99.99
2019-02-12T10:51:29.811Z,99.99
2019-02-12T10:52:29.726Z,99.99
2019-02-12T10:53:29.691Z,99.99
2019-02-12T10:54:29.553Z,99.99
2019-02-12T10:55:29.465Z,99.99
2019-02-12T10:56:29.378Z,99.99
2019-02-12T10:57:29.292Z,99.99
2019-02-12T10:58:29.229Z,99.99
2019-02-12T10:59:29.120Z,99.99
2019-02-12T11:00:29.034Z,99.99
2019-02-12T11:01:28.947Z,99.99
2019-02-12T11:02:28.861Z,99.99
2019-02-12T11:03:28.773Z,99.99
2019-02-12T11:04:28.688Z,99.99
2019-02-12T11:05:28.606Z,99.99
2019-02-12T11:06:28.517Z,99.99
2019-02-12T11:07:28.433Z,99.99
2019-02-12T11:08:28.345Z,99.99
2019-02-12T11:09:28.262Z,99.99
2019-02-12T11:10:28.173Z,99.99
2019-02-12T11:11:28.085Z,99.99
2019-02-12T11:12:28.001Z,99.99
2019-02-12T11:13:27.919Z,99.99
2019-02-12T11:14:27.825Z,99.99
2019-02-12T11:15:27.739Z,99.99
2019-02-12T11:16:27.655Z,99.99
2019-02-12T11:17:27.573Z,99.99
2019-02-12T11:18:27.481Z,99.99
2019-02-12T11:19:27.414Z,99.99
2019-02-12T11:20:27.315Z,99.99
2019-02-12T11:21:27.218Z,99.99
2019-02-12T11:22:27.134Z,99.99
2019-02-12T11:23:27.050Z,99.99
2019-02-12T11:24:26.966Z,99.99
2019-02-12T11:25:26.879Z,99.99
2019-02-12T11:26:26.790Z,99.99
2019-02-12T11:27:26.706Z,99.99
2019-02-12T11:28:26.622Z,99.99
2019-02-12T11:29:26.534Z,99.99
2019-02-12T11:30:26.448Z,99.99
2019-02-12T11:31:26.360Z,99.99
2019-02-12T11:32:26.272Z,99.99
2019-02-12T11:33:26.189Z,99.99
2019-02-12T11:34:26.103Z,99.99
2019-02-12T11:35:26.014Z,99.99
2019-02-12T11:36:25.931Z,99.99
2019-02-12T11:37:25.842Z,99.99
2019-02-12T11:38:25.764Z,99.99
2019-02-12T11:39:25.671Z,99.99
2019-02-12T11:40:25.586Z,99.99
2019-02-12T11:41:25.497Z,99.99
2019-02-12T11:42:25.411Z,99.99
2019-02-12T11:43:25.328Z,99.99
2019-02-12T11:44:25.243Z,99.99
2019-02-12T11:45:25.150Z,99.99
2019-02-12T11:46:25.064Z,99.99
2019-02-12T11:47:24.976Z,99.99
2019-02-12T11:48:24.889Z,99.99
2019-02-12T11:49:24.805Z,99.99
2019-02-12T11:50:24.718Z,99.99
2019-02-12T11:51:24.633Z,99.99
2019-02-12T11:52:24.546Z,99.99
2019-02-12T11:53:24.461Z,99.99
2019-02-12T11:54:24.367Z,99.99
2019-02-12T11:55:24.285Z,99.99
2019-02-12T11:56:24.200Z,99.99
2019-02-12T11:57:24.116Z,99.99
2019-02-12T11:58:24.026Z,99.99
2019-02-12T11:59:23.945Z,99.99
2019-02-12T12:00:23.858Z,99.99
2019-02-12T12:01:23.770Z,99.99
2019-02-12T12:02:23.684Z,99.99
2019-02-12T12:03:23.599Z,99.99
2019-02-12T12:04:23.510Z,99.99
2019-02-12T12:05:23.426Z,99.99
2019-02-12T12:06:23.338Z,99.99
2019-02-12T12:07:23.251Z,99.99
2019-02-12T12:08:23.166Z,99.99
2019-02-12T12:09:23.082Z,99.99
2019-02-12T12:10:22.991Z,99.99
2019-02-12T12:11:22.905Z,99.99
2019-02-12T12:12:22.826Z,99.99
2019-02-12T12:13:22.736Z,99.99
2019-02-12T12:14:22.649Z,99.99
2019-02-12T12:15:22.562Z,99.99
2019-02-12T12:16:22.477Z,99.99
2019-02-12T12:17:22.389Z,99.99
2019-02-12T12:18:22.304Z,99.99
2019-02-12T12:19:22.218Z,99.99
2019-02-12T12:20:22.133Z,99.99
2019-02-12T12:21:22.045Z,99.99
2019-02-12T12:22:21.962Z,99.99
2019-02-12T12:23:21.874Z,99.99
2019-02-12T12:24:21.787Z,99.99
2019-02-12T12:25:21.702Z,99.99
2019-02-12T12:26:21.616Z,99.99
2019-02-12T12:27:21.528Z,99.99
2019-02-12T12:28:21.443Z,99.99
2019-02-12T12:29:21.353Z,99.99
2019-02-12T12:30:21.270Z,99.99
2019-02-12T12:31:21.185Z,99.99
2019-02-12T12:32:21.097Z,99.99
2019-02-12T12:33:21.013Z,99.99
2019-02-12T12:34:20.926Z,99.99
2019-02-12T12:35:20.841Z,99.99
2019-02-12T12:36:20.779Z,99.99
2019-02-12T12:37:20.665Z,99.99
2019-02-12T12:38:20.581Z,99.99
2019-02-12T12:39:20.495Z,99.99
2019-02-12T12:40:20.411Z,99.99
2019-02-12T12:41:20.323Z,99.99
2019-02-12T12:42:20.233Z,99.99
2019-02-12T12:43:20.149Z,99.99
2019-02-12T12:44:20.087Z,99.99
2019-02-12T12:45:19.986Z,99.99
2019-02-12T12:46:19.889Z,99.99
2019-02-12T12:47:19.806Z,99.99
2019-02-12T12:48:19.728Z,99.99
2019-02-12T12:49:19.633Z,99.99
2019-02-12T12:50:19.547Z,99.99
2019-02-12T12:51:19.461Z,99.99